Alam Padu — 9MGK6 — position and weather

sailwx.info

Track history (hours):
 
Tides and Currents Weather Stations Pressure Air Temp Water Temp Dewpoint Dewpoint Depression Visibility Wind Speed Wind Dir Waves Ship Positions

Alam Padu

Last reported at 2014-Dec-22 05:33 UTC. Time now 2014-Dec-22 06:22 UTC.
Position N 31°59' E 120°38'.

Length 229 m; draft 10.8 m.

Type: Cargo ship. MMSI: 533924000.

Date/timePositionNaut miles runAvg speedWind from/ knotsBaromVisibWave heightAir tempDewpointWater temp
2014-Dec-22 05:33N 31°59' E 120°38'0 0.0
2014-Dec-22 04:21N 31°59' E 120°38'0 0.0
2014-Dec-22 03:33N 31°59' E 120°38'0 0.0
2014-Dec-22 02:33N 31°59' E 120°38'0 0.0
2014-Dec-22 01:33N 31°59' E 120°38'0 0.0
2014-Dec-22 00:30N 31°59' E 120°38'0 0.0
2014-Dec-21 23:33N 31°59' E 120°38'0 0.0
2014-Dec-21 22:33N 31°59' E 120°38'0 0.0
2014-Dec-21 21:33N 31°59' E 120°38'0 0.0
2014-Dec-21 20:33N 31°59' E 120°38'0 0.0
2014-Dec-21 19:33N 31°59' E 120°38'0 0.0
2014-Dec-21 18:21N 31°59' E 120°38'0 0.0
2014-Dec-21 17:32N 31°59' E 120°38'0 0.0
2014-Dec-21 16:32N 31°59' E 120°38'0 0.0
2014-Dec-21 15:32N 31°59' E 120°38'0 0.0
2014-Dec-21 14:32N 31°59' E 120°38'0 0.0
2014-Dec-21 13:29N 31°59' E 120°38'0 0.0
2014-Dec-21 12:32N 31°59' E 120°38'0 0.0
2014-Dec-21 11:32N 31°59' E 120°38'0 0.0
2014-Dec-21 10:29N 31°59' E 120°38'0 0.0
2014-Dec-21 09:33N 31°59' E 120°38'0 0.0
2014-Dec-21 08:33N 31°59' E 120°38'2 1.9
2014-Dec-21 07:33N 32°00' E 120°40'7 6.5
2014-Dec-21 06:33N 32°01' E 120°48'1111.3
2014-Dec-21 05:33N 31°51' E 120°54'1110.7
2014-Dec-21 04:33N 31°45' E 121°05'1110.6
2014-Dec-21 03:33N 31°39' E 121°15'6 5.6
2014-Dec-21 02:33N 31°35' E 121°20'0 0.3
2014-Dec-21 01:32N 31°35' E 121°20'0 0.1
2014-Dec-21 00:32N 31°35' E 121°20'0 0.0
2014-Dec-20 23:32N 31°35' E 121°20'0 0.1
2014-Dec-20 22:32N 31°35' E 121°20'0 0.0
2014-Dec-20 21:32N 31°35' E 121°20'0 0.1
2014-Dec-20 20:32N 31°35' E 121°20'0 0.0
2014-Dec-20 19:29N 31°35' E 121°20'0 0.0
2014-Dec-20 18:29N 31°35' E 121°20'0 0.3
2014-Dec-20 17:31N 31°35' E 121°19'0 0.1
2014-Dec-20 16:33N 31°35' E 121°19'9 9.1
2014-Dec-20 15:33N 31°28' E 121°27'10 9.7
2014-Dec-20 14:33N 31°23' E 121°36'9 8.8
2014-Dec-20 13:33N 31°19' E 121°45'1111.1
2014-Dec-20 12:33N 31°15' E 121°58'1010.4
2014-Dec-20 11:33N 31°12' E 122°09'9 9.2
2014-Dec-20 10:33N 31°06' E 122°18'10 9.4
2014-Dec-20 09:30N 31°06' E 122°29'85 1.8
2014-Dec-18 11:21N 29°41' E 122°33'810.2
2014-Dec-18 10:34N 29°43' E 122°24'8 7.9
2014-Dec-18 09:33N 29°47' E 122°16'9 8.6
2014-Dec-18 08:33N 29°54' E 122°10'10 9.5
2014-Dec-18 07:33N 29°57' E 121°60'5 4.6
2014-Dec-18 06:31N 30°02' E 121°59'0 0.0
2014-Dec-18 05:31N 30°02' E 121°59'0 0.0
2014-Dec-18 04:25N 30°02' E 121°59'0 0.0
2014-Dec-18 03:33N 30°02' E 121°59'0 0.1
2014-Dec-18 02:33N 30°02' E 121°59'0 0.1
2014-Dec-18 01:33N 30°02' E 121°59'0 0.1
2014-Dec-18 00:33N 30°02' E 121°59'0 0.1
2014-Dec-17 23:32N 30°02' E 121°59'0 0.1
2014-Dec-17 22:33N 30°02' E 121°59'0 0.1
2014-Dec-17 21:33N 30°02' E 121°59'0 0.0
2014-Dec-17 20:33N 30°02' E 121°59'0 0.0
2014-Dec-17 19:33N 30°02' E 121°59'0 0.0
2014-Dec-17 18:33N 30°02' E 121°59'0 0.0
2014-Dec-17 17:33N 30°02' E 121°59'0 0.1
2014-Dec-17 16:33N 30°02' E 121°59'0 0.0
2014-Dec-17 15:33N 30°02' E 121°59'0 0.1
2014-Dec-17 14:33N 30°02' E 121°59'0 0.1
2014-Dec-17 13:31N 30°02' E 121°59'0 0.1
2014-Dec-17 12:32N 30°02' E 121°59'0 0.1
2014-Dec-17 11:33N 30°02' E 121°59'0 0.3
2014-Dec-17 10:33N 30°02' E 121°59'7 6.6
2014-Dec-17 09:33N 29°56' E 122°02'9 9.1
2014-Dec-17 08:33N 29°52' E 122°12'9 9.3
2014-Dec-17 07:33N 29°45' E 122°18'9 9.0
2014-Dec-17 06:33N 29°40' E 122°27'8 7.9
2014-Dec-17 05:32N 29°32' E 122°28'8 8.3
2014-Dec-17 04:33N 29°24' E 122°31'8 8.3
2014-Dec-17 03:33N 29°17' E 122°35'  
Track history (hours):
 
Tides and Currents Weather Stations Pressure Air Temp Water Temp Dewpoint Dewpoint Depression Visibility Wind Speed Wind Dir Waves Ship Positions

Alam Padu

Last reported at 2014-Dec-22 05:33 UTC. Time now 2014-Dec-22 06:22 UTC.
Position N 31°59' E 120°38'.

Length 229 m; draft 10.8 m.

Type: Cargo ship. MMSI: 533924000.

Date/timePositionNaut miles runAvg speedWind from/ knotsBaromVisibWave heightAir tempDewpointWater temp
2014-Dec-22 05:33N 31°59' E 120°38'0 0.0
2014-Dec-22 04:21N 31°59' E 120°38'0 0.0
2014-Dec-22 03:33N 31°59' E 120°38'0 0.0
2014-Dec-22 02:33N 31°59' E 120°38'0 0.0
2014-Dec-22 01:33N 31°59' E 120°38'0 0.0
2014-Dec-22 00:30N 31°59' E 120°38'0 0.0
2014-Dec-21 23:33N 31°59' E 120°38'0 0.0
2014-Dec-21 22:33N 31°59' E 120°38'0 0.0
2014-Dec-21 21:33N 31°59' E 120°38'0 0.0
2014-Dec-21 20:33N 31°59' E 120°38'0 0.0
2014-Dec-21 19:33N 31°59' E 120°38'0 0.0
2014-Dec-21 18:21N 31°59' E 120°38'0 0.0
2014-Dec-21 17:32N 31°59' E 120°38'0 0.0
2014-Dec-21 16:32N 31°59' E 120°38'0 0.0
2014-Dec-21 15:32N 31°59' E 120°38'0 0.0
2014-Dec-21 14:32N 31°59' E 120°38'0 0.0
2014-Dec-21 13:29N 31°59' E 120°38'0 0.0
2014-Dec-21 12:32N 31°59' E 120°38'0 0.0
2014-Dec-21 11:32N 31°59' E 120°38'0 0.0
2014-Dec-21 10:29N 31°59' E 120°38'0 0.0
2014-Dec-21 09:33N 31°59' E 120°38'0 0.0
2014-Dec-21 08:33N 31°59' E 120°38'2 1.9
2014-Dec-21 07:33N 32°00' E 120°40'7 6.5
2014-Dec-21 06:33N 32°01' E 120°48'1111.3
2014-Dec-21 05:33N 31°51' E 120°54'1110.7
2014-Dec-21 04:33N 31°45' E 121°05'1110.6
2014-Dec-21 03:33N 31°39' E 121°15'6 5.6
2014-Dec-21 02:33N 31°35' E 121°20'0 0.3
2014-Dec-21 01:32N 31°35' E 121°20'0 0.1
2014-Dec-21 00:32N 31°35' E 121°20'0 0.0
2014-Dec-20 23:32N 31°35' E 121°20'0 0.1
2014-Dec-20 22:32N 31°35' E 121°20'0 0.0
2014-Dec-20 21:32N 31°35' E 121°20'0 0.1
2014-Dec-20 20:32N 31°35' E 121°20'0 0.0
2014-Dec-20 19:29N 31°35' E 121°20'0 0.0
2014-Dec-20 18:29N 31°35' E 121°20'0 0.3
2014-Dec-20 17:31N 31°35' E 121°19'0 0.1
2014-Dec-20 16:33N 31°35' E 121°19'9 9.1
2014-Dec-20 15:33N 31°28' E 121°27'10 9.7
2014-Dec-20 14:33N 31°23' E 121°36'9 8.8
2014-Dec-20 13:33N 31°19' E 121°45'1111.1
2014-Dec-20 12:33N 31°15' E 121°58'1010.4
2014-Dec-20 11:33N 31°12' E 122°09'9 9.2
2014-Dec-20 10:33N 31°06' E 122°18'10 9.4
2014-Dec-20 09:30N 31°06' E 122°29'85 1.8
2014-Dec-18 11:21N 29°41' E 122°33'810.2
2014-Dec-18 10:34N 29°43' E 122°24'8 7.9
2014-Dec-18 09:33N 29°47' E 122°16'9 8.6
2014-Dec-18 08:33N 29°54' E 122°10'10 9.5
2014-Dec-18 07:33N 29°57' E 121°60'5 4.6
2014-Dec-18 06:31N 30°02' E 121°59'0 0.0
2014-Dec-18 05:31N 30°02' E 121°59'0 0.0
2014-Dec-18 04:25N 30°02' E 121°59'0 0.0
2014-Dec-18 03:33N 30°02' E 121°59'0 0.1
2014-Dec-18 02:33N 30°02' E 121°59'0 0.1
2014-Dec-18 01:33N 30°02' E 121°59'0 0.1
2014-Dec-18 00:33N 30°02' E 121°59'0 0.1
2014-Dec-17 23:32N 30°02' E 121°59'0 0.1
2014-Dec-17 22:33N 30°02' E 121°59'0 0.1
2014-Dec-17 21:33N 30°02' E 121°59'0 0.0
2014-Dec-17 20:33N 30°02' E 121°59'0 0.0
2014-Dec-17 19:33N 30°02' E 121°59'0 0.0
2014-Dec-17 18:33N 30°02' E 121°59'0 0.0
2014-Dec-17 17:33N 30°02' E 121°59'0 0.1
2014-Dec-17 16:33N 30°02' E 121°59'0 0.0
2014-Dec-17 15:33N 30°02' E 121°59'0 0.1
2014-Dec-17 14:33N 30°02' E 121°59'0 0.1
2014-Dec-17 13:31N 30°02' E 121°59'0 0.1
2014-Dec-17 12:32N 30°02' E 121°59'0 0.1
2014-Dec-17 11:33N 30°02' E 121°59'0 0.3
2014-Dec-17 10:33N 30°02' E 121°59'7 6.6
2014-Dec-17 09:33N 29°56' E 122°02'9 9.1
2014-Dec-17 08:33N 29°52' E 122°12'9 9.3
2014-Dec-17 07:33N 29°45' E 122°18'9 9.0
2014-Dec-17 06:33N 29°40' E 122°27'8 7.9
2014-Dec-17 05:32N 29°32' E 122°28'8 8.3
2014-Dec-17 04:33N 29°24' E 122°31'8 8.3
2014-Dec-17 03:33N 29°17' E 122°35'  

Dump ship's entire track history